createdAt,value
2023-04-30T00:00:51.967Z,149786.28
2023-04-30T00:03:21.576Z,149855.81
2023-04-30T00:05:51.889Z,149969.19
2023-04-30T00:08:28.758Z,150067.09
2023-04-30T00:10:56.863Z,149991.06
2023-04-30T00:13:25.108Z,150002.66
2023-04-30T00:15:53.223Z,150027.16
2023-04-30T00:18:24.056Z,150065.81
2023-04-30T00:20:53.567Z,150043.88
2023-04-30T00:23:21.560Z,149983.31
2023-04-30T00:25:51.992Z,149909.91
2023-04-30T00:28:19.835Z,149854.53
2023-04-30T00:30:47.775Z,149979.50
2023-04-30T00:33:16.355Z,149886.72
2023-04-30T00:35:45.929Z,149817.16
2023-04-30T00:38:14.366Z,149833.91
2023-04-30T00:40:43.350Z,149732.22
2023-04-30T00:43:11.648Z,149752.81
2023-04-30T00:45:40.012Z,149693.59
2023-04-30T00:48:08.685Z,149777.25
2023-04-30T00:50:37.926Z,149755.41
2023-04-30T00:54:04.734Z,149714.16
2023-04-30T00:56:38.169Z,149669.13
2023-04-30T00:59:06.285Z,149814.63
2023-04-30T01:01:43.684Z,149851.97
2023-04-30T01:04:23.388Z,149862.28
2023-04-30T01:06:52.590Z,149794.00
2023-04-30T01:09:21.652Z,149876.41
2023-04-30T01:12:01.957Z,149832.63
2023-04-30T01:14:34.978Z,149862.28
2023-04-30T01:17:13.918Z,149734.78
2023-04-30T01:19:43.783Z,149682.00
2023-04-30T01:22:24.861Z,149678.16
2023-04-30T01:25:08.401Z,149734.78
2023-04-30T01:28:09.824Z,149821.03
2023-04-30T01:30:40.874Z,149729.63
2023-04-30T01:33:11.154Z,149772.09
2023-04-30T01:36:09.756Z,149763.09
2023-04-30T01:38:57.392Z,149813.34
2023-04-30T01:41:34.605Z,149814.63
2023-04-30T01:44:18.132Z,149850.66
2023-04-30T01:46:52.548Z,149915.06
2023-04-30T01:49:28.340Z,149900.91
2023-04-30T01:52:05.001Z,149926.63
2023-04-30T01:54:46.292Z,149831.34
2023-04-30T01:57:19.333Z,149774.69
2023-04-30T01:59:53.908Z,149667.84
2023-04-30T02:02:22.392Z,149706.44
2023-04-30T02:04:50.665Z,149698.75
2023-04-30T02:07:30.481Z,149845.50
2023-04-30T02:09:58.886Z,149773.38
2023-04-30T02:12:27.808Z,149836.50
2023-04-30T02:14:57.121Z,149797.88
2023-04-30T02:17:26.078Z,149940.81
2023-04-30T02:19:55.753Z,149877.69
2023-04-30T02:22:23.972Z,149849.38
2023-04-30T02:24:53.750Z,149858.41
2023-04-30T02:27:22.970Z,149736.06
2023-04-30T02:29:52.059Z,149648.56
2023-04-30T02:32:21.774Z,149625.38
2023-04-30T02:34:50.038Z,149576.50
2023-04-30T02:37:18.123Z,149685.88
2023-04-30T02:39:46.303Z,149741.22
2023-04-30T02:42:15.407Z,149669.13
2023-04-30T02:44:43.680Z,149868.72
2023-04-30T02:47:11.629Z,149882.84
2023-04-30T02:49:42.612Z,149979.50
2023-04-30T02:52:11.059Z,149987.19
2023-04-30T02:54:40.361Z,149909.91
2023-04-30T02:57:09.693Z,149815.88
2023-04-30T02:59:38.818Z,149747.66
2023-04-30T03:02:06.856Z,149800.47
2023-04-30T03:04:34.886Z,149775.97
2023-04-30T03:07:04.730Z,149814.63
2023-04-30T03:09:33.058Z,149830.06
2023-04-30T03:12:03.642Z,149781.13
2023-04-30T03:14:31.785Z,149734.78
2023-04-30T03:17:01.054Z,149665.28
2023-04-30T03:19:30.399Z,149647.28
2023-04-30T03:21:58.475Z,149667.84
2023-04-30T03:24:27.944Z,149696.19
2023-04-30T03:26:55.907Z,149706.44
2023-04-30T03:29:24.068Z,149822.31
2023-04-30T03:31:52.774Z,149987.19
2023-04-30T03:34:21.142Z,149955.00
2023-04-30T03:36:49.601Z,149961.44
2023-04-30T03:39:17.776Z,149997.50
2023-04-30T03:41:48.129Z,150041.31
2023-04-30T03:44:16.470Z,149976.91
2023-04-30T03:46:44.719Z,149996.22
2023-04-30T03:49:13.009Z,149971.75
2023-04-30T03:51:44.012Z,149964.03
2023-04-30T03:54:12.007Z,149992.34
2023-04-30T03:56:41.255Z,149997.50
2023-04-30T03:59:10.731Z,149951.13
2023-04-30T04:01:39.092Z,150042.59
2023-04-30T04:04:10.455Z,150090.25
2023-04-30T04:06:38.733Z,150080.00
2023-04-30T04:09:09.540Z,150134.13
2023-04-30T04:11:37.729Z,150131.56
2023-04-30T04:14:05.806Z,150103.16
2023-04-30T04:16:35.252Z,150085.16
2023-04-30T04:19:04.670Z,150061.94
2023-04-30T04:21:33.503Z,150069.69
2023-04-30T04:24:08.282Z,150059.34
2023-04-30T04:26:36.584Z,150065.81
2023-04-30T04:29:05.204Z,150103.16
2023-04-30T04:31:35.783Z,150092.84
2023-04-30T04:34:06.018Z,150087.75
2023-04-30T04:36:34.588Z,150063.22
2023-04-30T04:39:03.088Z,150041.31
2023-04-30T04:41:32.917Z,150033.59
2023-04-30T04:44:01.916Z,150000.06
2023-04-30T04:46:32.866Z,149979.50
2023-04-30T04:49:02.393Z,149958.84
2023-04-30T04:51:33.195Z,149998.78
2023-04-30T04:54:02.080Z,150118.66
2023-04-30T04:56:31.306Z,150156.00
2023-04-30T04:59:00.490Z,150230.81
2023-04-30T05:01:29.637Z,150252.75
2023-04-30T05:03:58.197Z,150278.53
2023-04-30T05:06:33.835Z,150353.34
2023-04-30T05:09:06.801Z,150371.38
2023-04-30T05:11:37.557Z,150395.91
2023-04-30T05:14:16.786Z,150422.97
2023-04-30T05:16:57.858Z,150384.28
2023-04-30T05:19:28.972Z,150426.88
2023-04-30T05:22:05.467Z,150426.88
2023-04-30T05:24:34.484Z,150508.19
2023-04-30T05:27:05.129Z,150565.03
2023-04-30T05:29:40.178Z,150603.75
2023-04-30T05:32:08.968Z,150620.56
2023-04-30T05:34:38.076Z,150655.41
2023-04-30T05:37:07.918Z,150673.50
2023-04-30T05:39:36.382Z,150676.06
2023-04-30T05:42:06.764Z,150676.06
2023-04-30T05:44:35.922Z,150700.59
2023-04-30T05:47:04.388Z,150709.63
2023-04-30T05:49:35.784Z,150761.31
2023-04-30T05:52:07.161Z,150810.38
2023-04-30T05:54:35.107Z,150855.66
2023-04-30T05:57:03.236Z,150889.22
2023-04-30T05:59:31.588Z,151032.69
2023-04-30T06:02:00.964Z,151156.88
2023-04-30T06:04:30.162Z,151251.34
2023-04-30T06:07:00.882Z,151295.38
2023-04-30T06:09:30.434Z,151422.19
2023-04-30T06:11:58.652Z,151327.72
2023-04-30T06:14:27.716Z,151244.91
2023-04-30T06:16:56.854Z,151155.56
2023-04-30T06:19:30.723Z,151049.53
2023-04-30T06:21:58.801Z,151024.97
2023-04-30T06:24:27.686Z,151034.00
2023-04-30T06:26:57.110Z,151035.28
2023-04-30T06:29:25.714Z,151092.19
2023-04-30T06:31:53.929Z,151074.13
2023-04-30T06:34:21.943Z,151154.28
2023-04-30T06:36:50.239Z,151272.06
2023-04-30T06:39:21.089Z,151353.63
2023-04-30T06:41:49.252Z,151619.06
2023-04-30T06:44:19.297Z,151607.41
2023-04-30T06:46:47.372Z,151448.09
2023-04-30T06:49:16.604Z,151376.88
2023-04-30T06:51:46.310Z,151312.16
2023-04-30T06:54:14.509Z,151338.06
2023-04-30T06:56:44.012Z,151325.13
2023-04-30T06:59:12.350Z,151508.97
2023-04-30T07:01:42.022Z,151643.69
2023-04-30T07:04:10.059Z,151752.53
2023-04-30T07:06:40.533Z,151936.63
2023-04-30T07:09:09.094Z,151838.13
2023-04-30T07:11:37.734Z,152136.44
2023-04-30T07:14:05.831Z,152009.28
2023-04-30T07:16:34.206Z,152071.59
2023-04-30T07:19:06.362Z,151679.97
2023-04-30T07:21:34.348Z,140852.94
2023-04-30T07:24:02.374Z,106096.44
2023-04-30T07:26:33.452Z,84952.13
2023-04-30T07:29:03.915Z,62125.69
2023-04-30T07:31:35.389Z,30849.13
2023-04-30T07:34:05.975Z,15795.56
2023-04-30T07:36:34.647Z,-945.06
2023-04-30T07:39:03.866Z,-14453.84
2023-04-30T07:41:32.014Z,-19519.88
2023-04-30T07:44:00.323Z,-20195.41
2023-04-30T07:46:39.616Z,-20207.00
2023-04-30T07:49:09.096Z,-20196.38
2023-04-30T07:51:39.542Z,-4042.97
2023-04-30T07:54:08.858Z,-15269.78
2023-04-30T07:56:38.261Z,-20188.56
2023-04-30T07:59:06.234Z,-20203.63
2023-04-30T08:01:34.772Z,-20212.16
2023-04-30T08:04:02.823Z,-20227.22
2023-04-30T08:06:32.270Z,-20203.50
2023-04-30T08:09:00.690Z,-20186.19
2023-04-30T08:11:29.740Z,-20177.25
2023-04-30T08:13:57.733Z,-20186.31
2023-04-30T08:16:25.911Z,-20184.22
2023-04-30T08:18:53.876Z,-20173.75
2023-04-30T08:21:28.202Z,-20173.31
2023-04-30T08:23:57.522Z,-20174.72
2023-04-30T08:26:30.607Z,-20167.47
2023-04-30T08:29:05.010Z,-20176.13
2023-04-30T08:31:34.328Z,-20191.91
2023-04-30T08:34:02.396Z,-20193.72
2023-04-30T08:36:30.601Z,-20199.72
2023-04-30T08:39:03.189Z,-20201.84
2023-04-30T08:41:34.604Z,-20200.72
2023-04-30T08:44:04.766Z,-20192.47
2023-04-30T08:46:38.767Z,-20180.72
2023-04-30T08:49:08.420Z,-20190.09
2023-04-30T08:51:37.008Z,-20187.31
2023-04-30T08:54:06.534Z,-20185.34
2023-04-30T08:56:35.296Z,-20181.44
2023-04-30T08:59:03.379Z,-20189.25
2023-04-30T09:01:32.118Z,-20207.69
2023-04-30T09:04:00.285Z,588.19
2023-04-30T09:06:28.428Z,17855.72
2023-04-30T09:08:56.503Z,26889.13
2023-04-30T09:11:27.813Z,64853.19
2023-04-30T09:13:57.531Z,108473.13
2023-04-30T09:16:26.684Z,137529.25
2023-04-30T09:18:56.802Z,152724.69
2023-04-30T09:21:35.092Z,152679.38
2023-04-30T09:24:05.692Z,152679.38
2023-04-30T09:26:38.913Z,152844.53
2023-04-30T09:29:08.861Z,152909.50
2023-04-30T09:31:37.946Z,153085.22
2023-04-30T09:34:11.641Z,153069.63
2023-04-30T09:36:54.907Z,153172.44
2023-04-30T09:39:24.560Z,153244.00
2023-04-30T09:42:09.662Z,152917.31
2023-04-30T09:44:43.355Z,152871.81
2023-04-30T09:47:27.493Z,152721.00
2023-04-30T09:49:57.106Z,152762.59
2023-04-30T09:52:53.728Z,152893.94
2023-04-30T09:55:30.897Z,152955.09
2023-04-30T09:58:10.199Z,153009.72
2023-04-30T10:00:41.224Z,153228.41
2023-04-30T10:03:14.423Z,153055.31
2023-04-30T10:05:48.679Z,153426.38
2023-04-30T10:08:24.850Z,153580.16
2023-04-30T10:13:46.945Z,153773.13
2023-04-30T10:16:21.806Z,153657.09
2023-04-30T10:18:54.130Z,153859.22
2023-04-30T10:21:24.529Z,154036.72
2023-04-30T10:23:54.352Z,153777.03
2023-04-30T10:26:27.207Z,153912.69
2023-04-30T10:29:01.421Z,153946.66
2023-04-30T10:32:03.046Z,153927.06
2023-04-30T10:34:44.290Z,153616.69
2023-04-30T10:37:25.977Z,149392.84
2023-04-30T10:39:55.456Z,140195.53
2023-04-30T10:42:27.454Z,152960.97
2023-04-30T10:45:04.046Z,154057.59
2023-04-30T10:47:32.928Z,150359.75
2023-04-30T10:50:05.300Z,153899.69
2023-04-30T10:52:38.166Z,153794.06
2023-04-30T10:55:07.762Z,153773.13
2023-04-30T10:57:42.817Z,153779.66
2023-04-30T11:00:27.475Z,153961.00
2023-04-30T11:02:59.000Z,154240.38
2023-04-30T11:05:38.743Z,154312.19
2023-04-30T11:08:07.675Z,154203.78
2023-04-30T11:10:36.769Z,154331.81
2023-04-30T11:13:06.647Z,154227.31
2023-04-30T11:15:41.877Z,154138.50
2023-04-30T11:18:26.280Z,154229.91
2023-04-30T11:20:54.668Z,153930.97
2023-04-30T11:23:32.197Z,153953.19
2023-04-30T11:26:08.949Z,154130.72
2023-04-30T11:28:38.744Z,154169.84
2023-04-30T11:31:08.589Z,154337.03
2023-04-30T11:33:37.892Z,154269.13
2023-04-30T11:36:06.830Z,154211.63
2023-04-30T11:38:38.280Z,154122.88
2023-04-30T11:41:06.568Z,154018.44
2023-04-30T11:43:38.409Z,154365.75
2023-04-30T11:46:11.326Z,154214.22
2023-04-30T11:48:42.642Z,153987.06
2023-04-30T11:51:17.739Z,154162.00
2023-04-30T11:53:48.468Z,154145.03
2023-04-30T11:56:21.442Z,154151.56
2023-04-30T11:58:50.579Z,154057.59
2023-04-30T12:01:21.095Z,154160.72
2023-04-30T12:03:53.291Z,153850.13
2023-04-30T12:06:27.640Z,154060.22
2023-04-30T12:08:56.294Z,154167.25
2023-04-30T12:11:26.226Z,154005.38
2023-04-30T12:13:55.660Z,154164.63
2023-04-30T12:16:26.605Z,154193.31
2023-04-30T12:18:55.484Z,153984.47
2023-04-30T12:21:24.114Z,154172.47
2023-04-30T12:23:54.385Z,154271.72
2023-04-30T12:26:23.416Z,154154.19
2023-04-30T12:28:53.563Z,154182.94
2023-04-30T12:31:22.002Z,154107.19
2023-04-30T12:33:58.004Z,153783.56
2023-04-30T12:36:37.084Z,154094.13
2023-04-30T12:39:09.601Z,154299.13
2023-04-30T12:41:49.886Z,154044.53
2023-04-30T12:44:20.410Z,154235.16
2023-04-30T12:46:49.817Z,154385.34
2023-04-30T12:49:26.334Z,154615.38
2023-04-30T12:51:59.577Z,154467.69
2023-04-30T12:54:29.156Z,154632.38
2023-04-30T12:57:04.848Z,154389.28
2023-04-30T12:59:34.029Z,154917.50
2023-04-30T13:02:10.142Z,154646.72
2023-04-30T13:04:39.764Z,154226.00
2023-04-30T13:07:10.228Z,154508.22
2023-04-30T13:09:39.445Z,154367.06
2023-04-30T13:12:07.855Z,154276.97
2023-04-30T13:14:35.985Z,154572.25
2023-04-30T13:17:05.921Z,154606.22
2023-04-30T13:19:34.787Z,154530.41
2023-04-30T13:22:04.175Z,154640.19
2023-04-30T13:24:33.374Z,154240.38
2023-04-30T13:27:02.834Z,154279.56
2023-04-30T13:29:31.778Z,154794.53
2023-04-30T13:31:59.790Z,154956.78
2023-04-30T13:34:27.724Z,154776.22
2023-04-30T13:36:56.202Z,154646.72
2023-04-30T13:39:26.617Z,154814.13
2023-04-30T13:41:54.552Z,154739.63
2023-04-30T13:44:22.812Z,154873.03
2023-04-30T13:46:50.909Z,154737.00
2023-04-30T13:49:19.118Z,155027.41
2023-04-30T13:51:47.042Z,155281.44
2023-04-30T13:54:19.036Z,154742.25
2023-04-30T13:56:48.779Z,154360.53
2023-04-30T13:59:17.717Z,154237.75
2023-04-30T14:01:48.760Z,154509.53
2023-04-30T14:04:18.495Z,154802.34
2023-04-30T14:10:35.489Z,154504.31
2023-04-30T14:13:24.058Z,154394.50
2023-04-30T14:15:57.259Z,154433.69
2023-04-30T14:18:25.833Z,155026.09
2023-04-30T14:20:55.885Z,155129.56
2023-04-30T14:23:26.060Z,154576.19
2023-04-30T14:25:54.631Z,154440.22
2023-04-30T14:28:25.739Z,154257.38
2023-04-30T14:30:54.626Z,154476.84
2023-04-30T14:33:28.373Z,154740.94
2023-04-30T14:35:56.453Z,154624.53
2023-04-30T14:38:27.666Z,154808.88
2023-04-30T14:41:03.288Z,154862.50
2023-04-30T14:43:32.509Z,154731.78
2023-04-30T14:46:00.953Z,154739.63
2023-04-30T14:48:31.299Z,154729.16
2023-04-30T14:51:00.187Z,154742.25
2023-04-30T14:53:29.816Z,155069.34
2023-04-30T14:56:00.537Z,155009.09
2023-04-30T14:58:28.830Z,155002.56
2023-04-30T15:01:00.737Z,155336.44
2023-04-30T15:03:29.525Z,155014.34
2023-04-30T15:05:58.089Z,154696.44
2023-04-30T15:08:26.304Z,154475.53
2023-04-30T15:10:55.085Z,154814.13
2023-04-30T15:13:23.036Z,154465.13
2023-04-30T15:15:51.296Z,154666.34
2023-04-30T15:18:20.734Z,154475.53
2023-04-30T15:20:48.613Z,154763.13
2023-04-30T15:23:17.074Z,154457.22
2023-04-30T15:25:45.191Z,154689.91
2023-04-30T15:28:14.084Z,154666.34
2023-04-30T15:30:42.609Z,154306.97
2023-04-30T15:33:10.620Z,154258.66
2023-04-30T15:35:41.664Z,154386.66
2023-04-30T15:38:09.731Z,154245.53
2023-04-30T15:40:37.912Z,154128.09
2023-04-30T15:43:07.832Z,154245.53
2023-04-30T15:45:40.231Z,154385.34
2023-04-30T15:48:08.750Z,154199.84
2023-04-30T15:50:37.469Z,154385.34
2023-04-30T15:53:06.759Z,154391.91
2023-04-30T15:55:35.079Z,154284.81
2023-04-30T15:58:05.002Z,154368.38
2023-04-30T16:00:33.878Z,154744.81
2023-04-30T16:03:01.872Z,154657.19
2023-04-30T16:05:31.557Z,154769.69
2023-04-30T16:08:01.668Z,154338.34
2023-04-30T16:10:31.379Z,154384.06
2023-04-30T16:12:59.443Z,154595.75
2023-04-30T16:15:27.705Z,154606.22
2023-04-30T16:17:56.100Z,154559.19
2023-04-30T16:20:24.383Z,154334.44
2023-04-30T16:22:52.700Z,154126.78
2023-04-30T16:25:21.207Z,154135.88
2023-04-30T16:27:51.683Z,154401.06
2023-04-30T16:30:19.966Z,154233.84
2023-04-30T16:32:48.402Z,154253.44
2023-04-30T16:35:16.921Z,154133.28
2023-04-30T16:37:45.093Z,154331.81
2023-04-30T16:40:14.178Z,154483.38
2023-04-30T16:42:43.854Z,154675.56
2023-04-30T16:45:17.214Z,154299.13
2023-04-30T16:47:46.070Z,154075.84
2023-04-30T16:50:14.157Z,153962.31
2023-04-30T16:52:42.819Z,154162.00
2023-04-30T16:55:14.180Z,153967.50
2023-04-30T16:57:43.936Z,153732.72
2023-04-30T17:00:17.717Z,153739.25
2023-04-30T17:02:53.745Z,153761.38
2023-04-30T17:05:22.675Z,153827.94
2023-04-30T17:07:50.729Z,153868.38
2023-04-30T17:10:21.430Z,153717.06
2023-04-30T17:12:57.774Z,153735.31
2023-04-30T17:15:27.302Z,153552.81
2023-04-30T17:17:56.523Z,153574.94
2023-04-30T17:20:35.590Z,153524.09
2023-04-30T17:23:03.943Z,153505.88
2023-04-30T17:25:32.577Z,153461.59
2023-04-30T17:28:01.714Z,153462.91
2023-04-30T17:30:36.128Z,153431.59
2023-04-30T17:33:04.575Z,153439.41
2023-04-30T17:35:33.917Z,153525.38
2023-04-30T17:38:01.865Z,153499.34
2023-04-30T17:40:31.451Z,153415.94
2023-04-30T17:42:59.463Z,153440.72
2023-04-30T17:45:28.979Z,153410.75
2023-04-30T17:47:58.444Z,153353.44
2023-04-30T17:50:27.739Z,153346.97
2023-04-30T17:52:56.022Z,153306.56
2023-04-30T17:55:25.662Z,153421.16
2023-04-30T17:57:53.631Z,153359.94
2023-04-30T18:00:21.819Z,153410.75
2023-04-30T18:02:49.835Z,153316.97
2023-04-30T18:05:19.380Z,153242.69
2023-04-30T18:07:47.778Z,153236.22
2023-04-30T18:10:15.814Z,153188.03
2023-04-30T18:12:43.932Z,150209.69
2023-04-30T18:15:15.360Z,147386.97
2023-04-30T18:17:45.711Z,128757.41
2023-04-30T18:20:14.916Z,118637.81
2023-04-30T18:22:44.490Z,102297.00
2023-04-30T18:25:13.218Z,101377.50
2023-04-30T18:27:43.285Z,46006.28
2023-04-30T18:30:14.993Z,30898.72
2023-04-30T18:32:48.742Z,14871.22
2023-04-30T18:35:28.705Z,36241.72
2023-04-30T18:38:24.623Z,13871.41
2023-04-30T18:40:55.768Z,7220.16
2023-04-30T18:43:24.038Z,9538.00
2023-04-30T18:45:52.530Z,916.81
2023-04-30T18:48:23.021Z,10855.72
2023-04-30T18:50:51.363Z,7866.97
2023-04-30T18:53:20.072Z,12180.56
2023-04-30T18:55:50.873Z,16169.63
2023-04-30T18:58:19.196Z,6540.75
2023-04-30T19:00:47.409Z,9185.84
2023-04-30T19:03:16.751Z,9181.16
2023-04-30T19:05:44.881Z,1900.34
2023-04-30T19:08:12.955Z,-2061.94
2023-04-30T19:10:41.134Z,-3051.84
2023-04-30T19:13:11.622Z,6194.72
2023-04-30T19:15:43.464Z,35759.19
2023-04-30T19:18:12.885Z,64022.44
2023-04-30T19:20:42.911Z,-9639.13
2023-04-30T19:23:11.142Z,-16535.94
2023-04-30T19:25:40.191Z,-20140.88
2023-04-30T19:28:09.952Z,-20144.81
2023-04-30T19:30:39.565Z,13059.88
2023-04-30T19:33:07.775Z,27672.44
2023-04-30T19:35:36.382Z,-1846.69
2023-04-30T19:38:04.286Z,53932.13
2023-04-30T19:40:32.338Z,67461.03
2023-04-30T19:43:00.684Z,80867.06
2023-04-30T19:45:31.048Z,127893.91
2023-04-30T19:48:00.581Z,148807.63
2023-04-30T19:50:28.438Z,151915.88
2023-04-30T19:52:57.728Z,151843.31
2023-04-30T19:55:26.761Z,151847.19
2023-04-30T19:57:55.226Z,151804.38
2023-04-30T20:00:23.715Z,151755.03
2023-04-30T20:02:53.000Z,151739.63
2023-04-30T20:05:22.783Z,151674.81
2023-04-30T20:07:51.063Z,151634.56
2023-04-30T20:10:19.714Z,151630.72
2023-04-30T20:12:47.663Z,151661.84
2023-04-30T20:15:15.922Z,151599.63
2023-04-30T20:17:44.054Z,151540.03
2023-04-30T20:20:14.243Z,151533.53
2023-04-30T20:22:43.830Z,151609.97
2023-04-30T20:25:12.286Z,151542.63
2023-04-30T20:27:40.613Z,151565.94
2023-04-30T20:30:10.485Z,151556.88
2023-04-30T20:32:39.205Z,151692.94
2023-04-30T20:35:10.048Z,151616.47
2023-04-30T20:37:38.604Z,151554.28
2023-04-30T20:40:11.837Z,151603.50
2023-04-30T20:42:40.869Z,151556.88
2023-04-30T20:45:11.458Z,151549.09
2023-04-30T20:47:41.231Z,151664.44
2023-04-30T20:50:09.887Z,151695.53
2023-04-30T20:52:38.117Z,151655.38
2023-04-30T20:55:06.864Z,151604.78
2023-04-30T20:57:39.368Z,151603.50
2023-04-30T21:00:10.059Z,151597.00
2023-04-30T21:02:40.220Z,151523.22
2023-04-30T21:05:10.291Z,151488.22
2023-04-30T21:07:38.642Z,151376.88
2023-04-30T21:10:09.167Z,151436.44
2023-04-30T21:12:38.758Z,151413.13
2023-04-30T21:15:07.770Z,151361.34
2023-04-30T21:17:38.317Z,151296.66
2023-04-30T21:20:12.958Z,151247.44
2023-04-30T21:22:41.143Z,151234.56
2023-04-30T21:25:24.568Z,151194.41
2023-04-30T21:27:56.093Z,151147.81
2023-04-30T21:30:33.107Z,151098.66
2023-04-30T21:33:02.597Z,151141.31
2023-04-30T21:35:33.212Z,151171.16
2023-04-30T21:38:02.216Z,151158.16
2023-04-30T21:40:33.663Z,151136.19
2023-04-30T21:43:03.613Z,151097.38
2023-04-30T21:45:33.372Z,151034.00
2023-04-30T21:48:04.579Z,151180.22
2023-04-30T21:50:33.544Z,151123.25
2023-04-30T21:53:01.541Z,151083.13
2023-04-30T21:55:30.042Z,151079.28
2023-04-30T21:57:58.648Z,151101.25
2023-04-30T22:00:28.254Z,151072.81
2023-04-30T22:02:58.343Z,151094.78
2023-04-30T22:05:26.385Z,151021.09
2023-04-30T22:07:55.110Z,150986.16
2023-04-30T22:10:27.219Z,150928.00
2023-04-30T22:16:07.941Z,150865.94
2023-04-30T22:18:36.033Z,150853.06
2023-04-30T22:21:06.799Z,150926.69
2023-04-30T22:23:34.982Z,150913.81
2023-04-30T22:26:04.596Z,150916.34
2023-04-30T22:28:32.664Z,151045.63
2023-04-30T22:31:00.954Z,151074.13
2023-04-30T22:33:30.389Z,151084.41
2023-04-30T22:36:01.143Z,151131.03
2023-04-30T22:38:29.232Z,151133.59
2023-04-30T22:41:00.145Z,151158.16
2023-04-30T22:43:30.631Z,151152.97
2023-04-30T22:45:58.926Z,151103.84
2023-04-30T22:48:28.274Z,151151.69
2023-04-30T22:50:58.862Z,151191.88
2023-04-30T22:53:52.296Z,151231.97
2023-04-30T22:56:22.624Z,151251.34
2023-04-30T22:59:03.233Z,151190.56
2023-04-30T23:01:53.544Z,151200.88
2023-04-30T23:04:24.658Z,151221.59
2023-04-30T23:07:13.944Z,151208.66
2023-04-30T23:09:43.129Z,151176.34
2023-04-30T23:12:20.175Z,151175.03
2023-04-30T23:14:55.280Z,151178.91
2023-04-30T23:17:26.898Z,151185.41
2023-04-30T23:19:56.196Z,151123.25
2023-04-30T23:22:25.889Z,151162.09
2023-04-30T23:24:57.124Z,151169.84
2023-04-30T23:27:28.232Z,151182.81
2023-04-30T23:29:57.517Z,151213.84
2023-04-30T23:32:26.294Z,151155.56
2023-04-30T23:34:55.472Z,151138.75
2023-04-30T23:37:23.405Z,151138.75
2023-04-30T23:39:52.923Z,151167.28
2023-04-30T23:42:20.881Z,151145.22
2023-04-30T23:44:48.797Z,151147.81
2023-04-30T23:47:17.402Z,151163.38
2023-04-30T23:49:46.132Z,151106.44
2023-04-30T23:52:14.447Z,151123.25
2023-04-30T23:54:42.411Z,151072.81
2023-04-30T23:57:11.860Z,151092.19
2023-04-30T23:59:39.715Z,151071.53
